Time;durP1;ratioP1;P1;durP2;ratioP2;P2;SDS_P1;SDS_P2;PMS_P1;PMS_P2;Temp;Humidity;BMP_temperature;BMP_pressure;BME280_temperature;BME280_humidity;BME280_pressure;Samples;Min_cycle;Max_cycle;Signal;HPM_P1;HPM_P2
2023/01/03 00:01:24;;;;;;;2.17;0.90;;;;;;;23.81;40.36;100280.06;1863772;76;28094;-48
2023/01/03 00:04:12;;;;;;;0.98;0.98;;;;;;;23.82;40.48;100273.52;1840991;77;28146;-45
2023/01/03 00:07:01;;;;;;;1.50;1.10;;;;;;;23.82;40.35;100275.42;1848380;77;31578;-49
2023/01/03 00:09:49;;;;;;;1.00;1.00;;;;;;;23.82;40.25;100274.89;1881037;75;28171;-45
2023/01/03 00:12:38;;;;;;;1.10;1.10;;;;;;;23.82;40.45;100278.16;1880084;75;28113;-45
2023/01/03 00:15:26;;;;;;;1.17;1.05;;;;;;;23.85;40.23;100281.28;1882973;75;28223;-47
2023/01/03 00:18:15;;;;;;;1.00;1.00;;;;;;;23.84;40.35;100284.26;1882072;75;28128;-46
2023/01/03 00:21:05;;;;;;;1.02;1.02;;;;;;;23.84;40.21;100292.49;1882140;75;28100;-45
2023/01/03 00:23:53;;;;;;;0.93;0.93;;;;;;;23.85;40.38;100291.45;1883579;75;28127;-46
2023/01/03 00:26:42;;;;;;;1.00;0.90;;;;;;;23.84;40.29;100289.75;1855870;75;28211;-45
2023/01/03 00:29:31;;;;;;;2.90;1.17;;;;;;;23.85;40.23;100291.45;1867220;75;28159;-46
2023/01/03 00:32:20;;;;;;;1.10;0.90;;;;;;;23.83;40.17;100293.02;1879680;75;28327;-47
2023/01/03 00:35:09;;;;;;;1.10;1.10;;;;;;;23.86;40.17;100293.11;1881307;75;28197;-46
2023/01/03 00:37:57;;;;;;;0.85;0.85;;;;;;;23.85;40.29;100290.07;1881553;75;28222;-47
2023/01/03 00:40:46;;;;;;;1.00;1.00;;;;;;;23.83;40.27;100286.16;1867083;75;28097;-46
2023/01/03 00:43:35;;;;;;;0.90;0.90;;;;;;;23.82;40.22;100285.87;1880645;75;28244;-47
2023/01/03 00:46:24;;;;;;;1.10;1.00;;;;;;;23.84;40.21;100282.36;1871912;75;28208;-44
2023/01/03 00:49:13;;;;;;;0.90;0.90;;;;;;;23.84;40.17;100275.50;1879634;75;28171;-45
2023/01/03 00:52:01;;;;;;;1.90;0.88;;;;;;;23.84;40.12;100277.41;1882354;75;28200;-43
2023/01/03 00:54:50;;;;;;;1.20;1.10;;;;;;;23.84;40.16;100270.54;1881775;75;28139;-44
2023/01/03 00:57:39;;;;;;;1.12;1.10;;;;;;;23.82;40.13;100272.67;1860577;75;28118;-47
2023/01/03 01:00:27;;;;;;;1.60;1.10;;;;;;;23.86;40.11;100276.64;1879944;75;28137;-44
2023/01/03 01:03:16;;;;;;;1.10;1.00;;;;;;;23.83;40.12;100278.45;1883537;75;28232;-45
2023/01/03 01:06:16;;;;;;;0.90;0.90;;;;;;;23.83;40.11;100279.82;1883527;75;28194;-44
2023/01/03 01:09:06;;;;;;;2.37;1.00;;;;;;;23.82;40.16;100281.75;1871890;75;28167;-47
2023/01/03 01:11:55;;;;;;;1.17;0.98;;;;;;;23.81;40.15;100277.84;1832911;76;28261;-45
2023/01/03 01:14:43;;;;;;;0.90;0.90;;;;;;;23.82;40.13;100270.78;1865858;76;28203;-45
2023/01/03 01:17:31;;;;;;;0.90;0.90;;;;;;;23.79;40.14;100275.33;1858346;76;28236;-48
2023/01/03 01:20:19;;;;;;;1.00;0.82;;;;;;;23.79;40.18;100274.48;1848650;76;28304;-46
2023/01/03 01:23:08;;;;;;;1.20;1.00;;;;;;;23.81;40.14;100278.69;1827863;77;28284;-46
2023/01/03 01:26:01;;;;;;;1.35;1.20;;;;;;;23.83;40.25;100275.70;1862905;76;28283;-44
2023/01/03 01:28:51;;;;;;;1.10;1.10;;;;;;;23.76;40.24;100270.28;1856393;76;28140;-43
2023/01/03 01:31:41;;;;;;;1.03;1.03;;;;;;;23.82;40.10;100274.05;1856714;76;28081;-44
2023/01/03 01:34:30;;;;;;;0.85;0.85;;;;;;;23.80;40.14;100274.28;1849666;76;28037;-45
2023/01/03 01:37:18;;;;;;;1.10;0.95;;;;;;;23.82;40.07;100272.67;1829662;76;38638;-45
2023/01/03 01:40:08;;;;;;;0.90;0.90;;;;;;;23.74;40.09;100266.08;1854134;76;28053;-43
2023/01/03 01:46:06;;;;;;;1.10;1.10;;;;;;;23.81;40.15;100280.58;1841988;76;28081;-45
2023/01/03 01:49:01;;;;;;;0.90;0.90;;;;;;;23.80;40.14;100289.89;1861640;76;28606;-45
2023/01/03 01:51:50;;;;;;;1.35;1.20;;;;;;;23.77;40.14;100289.81;1852795;76;28258;-50
2023/01/03 01:54:40;;;;;;;1.35;1.25;;;;;;;23.78;40.13;100295.59;1874142;76;28044;-43
2023/01/03 01:57:30;;;;;;;0.90;0.90;;;;;;;23.77;40.27;100289.81;1831669;76;28203;-44
2023/01/03 02:00:19;;;;;;;1.27;1.17;;;;;;;23.78;40.23;100294.22;1861582;76;28107;-43
2023/01/03 02:03:07;;;;;;;1.70;1.20;;;;;;;23.78;40.28;100291.47;1867277;76;28267;-43
2023/01/03 02:05:58;;;;;;;1.00;1.00;;;;;;;23.80;40.24;100289.89;1861457;76;28034;-43
2023/01/03 02:08:46;;;;;;;1.20;1.20;;;;;;;23.78;40.20;100291.47;1854822;76;28065;-43
2023/01/03 02:15:12;;;;;;;1.30;1.00;;;;;;;23.74;40.36;100294.88;1787977;76;28223;-43
2023/01/03 02:18:18;;;;;;;1.20;1.10;;;;;;;23.74;40.36;100296.25;1866521;76;28145;-42
2023/01/03 02:21:31;;;;;;;1.10;1.00;;;;;;;23.70;40.41;100291.77;1865395;76;28088;-44
2023/01/03 02:24:25;;;;;;;1.07;1.07;;;;;;;23.65;40.52;100288.84;1858752;76;28198;-45
2023/01/03 02:27:37;;;;;;;1.17;1.10;;;;;;;23.65;40.49;100297.06;1867882;76;28149;-43
2023/01/03 02:30:50;;;;;;;0.98;0.98;;;;;;;23.65;40.49;100302.55;1853998;76;28102;-45
2023/01/03 02:33:50;;;;;;;1.20;1.10;;;;;;;23.60;40.53;100288.66;1839354;76;28163;-43
2023/01/03 02:36:47;;;;;;;1.00;0.93;;;;;;;23.59;40.59;100281.52;1850454;76;28234;-42
2023/01/03 02:39:38;;;;;;;1.00;1.00;;;;;;;23.62;40.54;100288.46;1867971;76;28161;-43
2023/01/03 02:43:00;;;;;;;1.00;1.00;;;;;;;23.62;40.55;100285.16;1867018;76;28107;-43
2023/01/03 02:46:04;;;;;;;1.00;1.00;;;;;;;23.52;40.58;100265.64;1867221;76;28208;-42
2023/01/03 02:49:07;;;;;;;1.75;1.17;;;;;;;23.59;40.55;100283.41;1839723;76;28188;-44
2023/01/03 02:51:59;;;;;;;1.07;1.00;;;;;;;23.54;40.60;100279.96;1866711;76;28134;-43
2023/01/03 02:54:56;;;;;;;1.02;1.00;;;;;;;23.54;40.61;100277.75;1867206;75;28207;-43
2023/01/03 02:57:53;;;;;;;3.10;1.20;;;;;;;23.60;40.62;100272.73;1858532;76;28081;-42
2023/01/03 03:00:47;;;;;;;1.05;0.95;;;;;;;23.60;40.57;100274.10;1867870;76;28178;-43
2023/01/03 03:03:37;;;;;;;1.05;1.05;;;;;;;23.60;40.54;100282.33;1863876;76;28118;-45
2023/01/03 03:06:34;;;;;;;0.95;0.95;;;;;;;23.57;40.57;100293.21;1867903;76;28110;-44
2023/01/03 03:09:23;;;;;;;1.00;0.90;;;;;;;23.59;40.60;100295.75;1823546;76;28120;-43
2023/01/03 03:15:23;;;;;;;0.98;0.98;;;;;;;23.55;40.64;100294.52;1867638;76;28396;-43
2023/01/03 03:18:18;;;;;;;0.80;0.80;;;;;;;23.51;40.75;100291.89;1858714;76;28122;-42
2023/01/03 03:30:41;;;;;;;0.95;0.90;;;;;;;23.51;40.77;100311.09;1863617;76;28140;-43
2023/01/03 03:33:32;;;;;;;0.98;0.98;;;;;;;23.48;40.79;100301.95;1858797;75;28092;-44
2023/01/03 03:36:32;;;;;;;1.10;1.10;;;;;;;23.49;40.78;100304.98;1872893;75;28670;-43
2023/01/03 03:46:09;;;;;;;1.10;1.10;;;;;;;23.47;40.86;100304.38;1872835;75;28195;-43
2023/01/03 03:52:18;;;;;;;1.07;1.00;;;;;;;23.47;40.82;100302.48;1861546;76;28132;-44
2023/01/03 03:55:10;;;;;;;0.95;0.95;;;;;;;23.45;40.83;100296.91;1867838;76;28167;-42
2023/01/03 03:58:01;;;;;;;1.25;1.12;;;;;;;23.46;40.88;100306.27;1862515;76;28161;-42
2023/01/03 04:00:51;;;;;;;1.10;1.10;;;;;;;23.50;40.72;100308.05;1857495;76;28188;-42
2023/01/03 04:03:44;;;;;;;1.00;1.00;;;;;;;23.50;40.61;100297.90;1856319;76;28251;-43
2023/01/03 04:06:40;;;;;;;1.00;1.00;;;;;;;23.50;40.70;100301.20;1856797;76;28069;-45
2023/01/03 04:09:29;;;;;;;0.90;0.90;;;;;;;23.49;40.73;100311.84;1867824;75;28278;-41
2023/01/03 04:12:18;;;;;;;0.80;0.80;;;;;;;23.48;40.76;100305.52;1858047;75;28092;-42
2023/01/03 04:15:07;;;;;;;1.10;1.10;;;;;;;23.48;40.73;100301.95;1852377;76;28339;-42
2023/01/03 04:17:56;;;;;;;1.00;1.00;;;;;;;23.49;40.74;100302.25;1844060;76;28239;-43
2023/01/03 04:20:44;;;;;;;0.80;0.80;;;;;;;23.50;40.76;100303.38;1868008;76;28108;-44
2023/01/03 04:23:32;;;;;;;0.93;0.93;;;;;;;23.50;40.71;100301.20;1860418;76;28033;-45
2023/01/03 04:26:20;;;;;;;0.90;0.90;;;;;;;23.50;40.77;100296.53;1864106;76;28116;-43
2023/01/03 04:29:09;;;;;;;1.07;1.03;;;;;;;23.51;40.79;100291.89;1869321;76;28024;-42
2023/01/03 04:31:57;;;;;;;0.85;0.85;;;;;;;23.49;40.76;100296.77;1867773;76;28258;-45
2023/01/03 04:34:46;;;;;;;1.40;0.90;;;;;;;23.50;40.72;100294.34;1854103;76;28091;-44
2023/01/03 04:37:34;;;;;;;1.10;1.10;;;;;;;23.42;40.72;100289.95;1857060;76;28125;-44
2023/01/03 04:40:22;;;;;;;0.80;0.80;;;;;;;23.48;40.76;100306.88;1867954;76;28213;-42
2023/01/03 04:46:17;;;;;;;1.02;0.98;;;;;;;23.46;40.84;100309.53;1855074;76;28146;-42
2023/01/03 04:49:09;;;;;;;0.90;0.90;;;;;;;23.45;40.89;100310.61;1868281;75;28225;-43
2023/01/03 04:51:57;;;;;;;1.00;1.00;;;;;;;23.43;40.92;100308.10;1867696;76;28132;-43
2023/01/03 04:54:46;;;;;;;0.93;0.93;;;;;;;23.43;40.96;100303.98;1860252;75;28259;-42
2023/01/03 04:57:35;;;;;;;0.80;0.80;;;;;;;23.44;40.88;100309.77;1870356;76;28172;-44
2023/01/03 05:00:24;;;;;;;1.20;0.90;;;;;;;23.44;40.92;100300.69;1863475;76;28185;-45
2023/01/03 05:03:13;;;;;;;1.45;1.00;;;;;;;23.44;40.95;100302.06;1867888;75;28242;-45
2023/01/03 05:06:04;;;;;;;0.90;0.90;;;;;;;23.47;40.92;100297.52;1868020;76;35115;-44
2023/01/03 05:08:54;;;;;;;0.90;0.90;;;;;;;23.46;40.92;100301.30;1859734;76;28207;-44
2023/01/03 05:11:42;;;;;;;0.90;0.90;;;;;;;23.43;40.91;100308.10;1862814;76;28069;-45
2023/01/03 05:14:30;;;;;;;0.90;0.90;;;;;;;23.43;40.95;100316.33;1853688;76;28268;-44
2023/01/03 05:17:19;;;;;;;0.98;0.98;;;;;;;23.43;40.92;100321.81;1867756;76;28141;-44
2023/01/03 05:26:24;;;;;;;0.70;0.70;;;;;;;23.41;40.96;100321.72;1864498;76;28180;-43
2023/01/03 05:29:15;;;;;;;0.80;0.80;;;;;;;23.41;40.97;100327.20;1849617;77;28287;-43
2023/01/03 05:32:04;;;;;;;1.27;0.90;;;;;;;23.41;40.96;100328.02;1859064;75;28202;-43
2023/01/03 05:34:52;;;;;;;0.90;0.90;;;;;;;23.41;40.96;100332.69;1843515;76;28200;-43
2023/01/03 05:37:41;;;;;;;2.02;1.05;;;;;;;23.41;40.97;100330.76;1863969;76;28085;-46
2023/01/03 05:40:29;;;;;;;0.90;0.90;;;;;;;23.34;40.93;100314.35;1834102;77;28097;-43
2023/01/03 05:43:18;;;;;;;0.90;0.90;;;;;;;23.41;40.96;100329.39;1868015;76;28139;-45
2023/01/03 05:46:06;;;;;;;0.90;0.90;;;;;;;23.42;40.95;100327.49;1855898;77;28250;-43
2023/01/03 05:48:55;;;;;;;0.85;0.85;;;;;;;23.43;40.91;100331.41;1846639;76;28280;-42
2023/01/03 05:51:43;;;;;;;0.82;0.82;;;;;;;23.44;40.91;100334.44;1855778;77;28080;-43
2023/01/03 05:54:33;;;;;;;0.60;0.60;;;;;;;23.43;40.83;100325.92;1846739;76;28136;-45
2023/01/03 05:57:21;;;;;;;0.93;0.93;;;;;;;23.42;40.87;100331.08;1853944;77;28056;-45
2023/01/03 06:00:11;;;;;;;1.50;0.90;;;;;;;23.42;40.96;100331.61;1855882;76;28139;-45
2023/01/03 06:02:59;;;;;;;0.80;0.80;;;;;;;23.43;40.93;100328.67;1867966;76;28051;-44
2023/01/03 06:05:48;;;;;;;0.95;0.95;;;;;;;23.44;40.93;100333.59;1871374;75;28146;-43
2023/01/03 06:08:37;;;;;;;0.87;0.87;;;;;;;23.43;40.95;100337.41;1850767;76;28374;-46
2023/01/03 06:11:25;;;;;;;0.80;0.80;;;;;;;23.44;40.91;100336.34;1850496;77;28040;-45
2023/01/03 06:14:13;;;;;;;0.85;0.78;;;;;;;23.45;40.87;100332.02;1864308;75;28212;-44
2023/01/03 06:20:09;;;;;;;0.80;0.80;;;;;;;23.46;40.80;100347.92;1883352;75;28066;-43
2023/01/03 06:22:57;;;;;;;0.82;0.82;;;;;;;23.44;40.91;100339.08;1807263;78;28231;-43
2023/01/03 06:25:45;;;;;;;0.90;0.90;;;;;;;23.45;40.91;100329.80;1824056;78;28344;-45
2023/01/03 06:28:33;;;;;;;0.80;0.80;;;;;;;23.42;40.76;100322.02;1818856;78;28313;-44
2023/01/03 06:31:22;;;;;;;1.20;1.10;;;;;;;23.40;40.48;100326.88;1823918;78;28343;-42
2023/01/03 06:34:10;;;;;;;1.30;1.20;;;;;;;23.40;40.27;100328.25;1810109;78;28274;-43
2023/01/03 06:36:59;;;;;;;1.10;1.10;;;;;;;23.35;40.12;100331.65;1837308;77;28159;-42
2023/01/03 06:39:47;;;;;;;0.90;0.90;;;;;;;23.40;39.94;100344.70;1793097;78;28270;-41
2023/01/03 06:42:44;;;;;;;1.00;1.00;;;;;;;23.44;39.72;100351.42;1831455;77;28450;-42
2023/01/03 06:54:54;;;;;;;1.00;1.00;;;;;;;23.38;40.05;100349.56;1839402;77;29336;-43
2023/01/03 06:57:43;;;;;;;0.80;0.80;;;;;;;23.32;40.21;100356.20;1839979;77;28520;-43
2023/01/03 07:00:32;;;;;;;0.93;0.93;;;;;;;23.34;40.25;100355.48;1842363;77;28392;-42
2023/01/03 07:03:21;;;;;;;0.90;0.90;;;;;;;23.34;40.25;100354.59;1842562;77;28257;-44
2023/01/03 07:06:10;;;;;;;0.80;0.80;;;;;;;23.31;40.33;100355.87;1841678;77;28211;-42
2023/01/03 07:08:58;;;;;;;0.80;0.80;;;;;;;23.28;40.50;100361.81;1841651;77;28257;-42
2023/01/03 07:11:47;;;;;;;1.85;1.00;;;;;;;23.36;40.40;100362.95;1839035;77;33229;-44
2023/01/03 07:14:35;;;;;;;0.80;0.80;;;;;;;23.36;40.36;100349.80;1832007;77;28336;-50
2023/01/03 07:17:24;;;;;;;1.12;0.90;;;;;;;23.36;40.42;100353.35;1808351;78;28340;-46
2023/01/03 07:20:12;;;;;;;0.95;0.95;;;;;;;23.37;40.36;100355.57;1857965;76;28296;-44
2023/01/03 07:23:00;;;;;;;1.55;1.00;;;;;;;23.38;40.42;100356.71;1852402;74;28320;-42
2023/01/03 07:25:49;;;;;;;0.98;0.98;;;;;;;23.45;40.34;100362.19;1867516;76;28196;-44
2023/01/03 07:28:37;;;;;;;0.80;0.80;;;;;;;23.30;40.66;100358.32;1849446;76;28207;-46
2023/01/03 07:31:26;;;;;;;1.10;1.00;;;;;;;23.39;40.77;100382.23;1865242;76;28171;-44
2023/01/03 07:34:14;;;;;;;0.90;0.90;;;;;;;23.35;40.96;100390.59;1868134;75;28231;-38
2023/01/03 07:37:02;;;;;;;0.95;0.85;;;;;;;23.38;41.00;100390.17;1868263;76;32986;-44
2023/01/03 07:39:50;;;;;;;1.10;1.05;;;;;;;23.36;41.15;100391.73;1869097;75;28144;-44
2023/01/03 07:45:46;;;;;;;0.97;0.83;;;;;;;23.34;41.38;100396.60;1849776;76;28505;-44
2023/01/03 07:48:35;;;;;;;1.75;1.07;;;;;;;23.32;41.55;100400.06;1868778;75;28119;-43
2023/01/03 07:51:24;;;;;;;0.80;0.80;;;;;;;23.33;41.79;100395.42;1857806;76;28145;-43
2023/01/03 07:54:13;;;;;;;1.57;1.10;;;;;;;23.33;41.79;100385.31;1868408;76;28291;-43
2023/01/03 07:57:02;;;;;;;0.70;0.70;;;;;;;23.37;41.72;100392.59;1861149;76;28188;-42
2023/01/03 07:59:50;;;;;;;1.55;0.98;;;;;;;23.36;41.75;100393.66;1868868;75;28202;-45
2023/01/03 08:02:39;;;;;;;0.75;0.72;;;;;;;23.30;41.90;100403.55;1852061;76;28201;-43
2023/01/03 08:05:27;;;;;;;0.93;0.93;;;;;;;23.32;41.93;100407.44;1868756;76;28152;-42
2023/01/03 08:08:15;;;;;;;0.82;0.82;;;;;;;23.29;42.01;100416.94;1853676;75;28400;-43
2023/01/03 08:14:10;;;;;;;0.90;0.90;;;;;;;23.35;41.95;100430.35;1863260;76;28148;-44
2023/01/03 08:16:58;;;;;;;0.93;0.93;;;;;;;23.31;42.09;100432.64;1859873;76;28131;-46
2023/01/03 08:19:47;;;;;;;0.90;0.90;;;;;;;23.29;42.05;100434.76;1868769;75;28172;-42
2023/01/03 08:22:35;;;;;;;1.92;0.90;;;;;;;23.29;42.10;100434.76;1871614;75;28042;-42
2023/01/03 08:25:24;;;;;;;0.90;0.80;;;;;;;23.29;42.08;100441.61;1859541;76;28618;-45
2023/01/03 08:28:13;;;;;;;1.12;0.88;;;;;;;23.29;42.06;100450.39;1868627;76;28111;-44
2023/01/03 08:31:04;;;;;;;0.82;0.82;;;;;;;23.30;42.04;100449.31;1851830;76;28258;-44
2023/01/03 08:33:55;;;;;;;0.80;0.80;;;;;;;23.30;42.00;100457.53;1868812;76;28105;-43
2023/01/03 08:36:56;;;;;;;1.85;0.80;;;;;;;23.30;42.00;100457.53;1869870;76;28057;-44
2023/01/03 08:39:53;;;;;;;0.93;0.82;;;;;;;23.33;41.96;100464.81;1845090;76;28072;-43
2023/01/03 08:42:42;;;;;;;1.35;0.90;;;;;;;23.31;41.95;100468.83;1863683;76;28147;-44
2023/01/03 08:45:30;;;;;;;1.20;0.90;;;;;;;23.29;42.03;100469.02;1868517;76;28116;-43
2023/01/03 08:48:21;;;;;;;0.70;0.70;;;;;;;23.28;42.02;100466.51;1868838;76;28113;-43
2023/01/03 08:51:10;;;;;;;0.70;0.70;;;;;;;23.29;41.92;100467.66;1857648;75;28131;-43
2023/01/03 08:53:58;;;;;;;0.80;0.80;;;;;;;23.33;41.91;100475.78;1865073;76;28060;-43
2023/01/03 08:56:47;;;;;;;0.95;0.65;;;;;;;23.29;41.96;100480.55;1853709;76;28122;-43
2023/01/03 08:59:35;;;;;;;0.60;0.60;;;;;;;23.29;42.03;100485.47;1861309;75;28096;-42
2023/01/03 09:02:24;;;;;;;1.97;0.83;;;;;;;23.30;41.97;100487.17;1847529;76;28099;-43
2023/01/03 09:05:12;;;;;;;1.10;0.88;;;;;;;23.31;41.97;100492.13;1866139;76;28124;-46
2023/01/03 09:08:00;;;;;;;0.65;0.65;;;;;;;23.34;41.83;100499.91;1868741;75;28068;-47
2023/01/03 09:10:49;;;;;;;0.70;0.60;;;;;;;23.30;41.93;100498.66;1868883;76;28143;-45
2023/01/03 09:13:38;;;;;;;0.70;0.70;;;;;;;23.26;41.92;100502.38;1868945;76;32009;-46
2023/01/03 09:16:27;;;;;;;2.60;0.80;;;;;;;23.30;41.90;100495.39;1861847;76;28100;-44
2023/01/03 09:19:15;;;;;;;0.80;0.80;;;;;;;23.30;41.92;100498.14;1862375;76;28212;-43
2023/01/03 09:22:04;;;;;;;0.83;0.83;;;;;;;23.28;41.99;100503.52;1856483;76;28595;-46
2023/01/03 09:24:54;;;;;;;0.68;0.68;;;;;;;23.33;41.82;100509.20;1866144;76;28106;-42
2023/01/03 09:27:47;;;;;;;0.78;0.78;;;;;;;23.33;41.85;100499.61;1869027;76;28173;-45
2023/01/03 09:30:36;;;;;;;1.70;0.90;;;;;;;23.31;41.87;100501.17;1868937;76;28080;-43
2023/01/03 09:33:25;;;;;;;0.90;0.90;;;;;;;23.31;41.84;100497.62;1867161;76;28170;-44
2023/01/03 09:36:13;;;;;;;0.80;0.80;;;;;;;23.33;41.79;100498.23;1866373;76;28083;-44
2023/01/03 09:39:02;;;;;;;0.80;0.80;;;;;;;23.30;41.86;100503.62;1862270;76;28185;-43
2023/01/03 09:43:11;;;;;;;0.78;0.78;;;;;;;23.29;41.91;100506.03;1855069;76;28198;-44
2023/01/03 09:44:41;;;;;;;0.80;0.80;;;;;;;23.27;41.93;100506.78;1865543;75;28103;-46
2023/01/03 09:47:31;;;;;;;1.80;0.72;;;;;;;23.29;41.90;100510.15;1869228;75;31020;-43
2023/01/03 09:50:26;;;;;;;0.70;0.70;;;;;;;23.30;41.80;100513.22;1868819;75;28257;-45
2023/01/03 10:06:25;;;;;;;0.80;0.80;;;;;;;23.30;41.76;100515.11;1868548;76;28044;-43
2023/01/03 10:09:16;;;;;;;0.90;0.90;;;;;;;23.27;41.86;100519.12;1851805;76;28144;-42
2023/01/03 10:12:37;;;;;;;0.70;0.70;;;;;;;23.25;41.81;100511.64;1870454;75;28196;-43
2023/01/03 10:15:31;;;;;;;0.90;0.90;;;;;;;23.28;41.85;100514.48;1863449;75;28529;-43
2023/01/03 10:18:32;;;;;;;0.68;0.68;;;;;;;23.24;41.84;100517.35;1870620;76;28088;-43
2023/01/03 10:21:26;;;;;;;0.90;0.78;;;;;;;23.26;41.77;100518.83;1878088;76;28150;-45
2023/01/03 10:24:26;;;;;;;0.60;0.60;;;;;;;23.30;41.77;100523.33;1865917;76;28136;-43
2023/01/03 10:27:24;;;;;;;1.00;1.00;;;;;;;23.29;41.78;100519.74;1863178;76;28124;-43
2023/01/03 10:30:18;;;;;;;0.80;0.80;;;;;;;23.30;41.78;100521.97;1875239;75;28178;-44
2023/01/03 10:33:20;;;;;;;0.80;0.80;;;;;;;23.30;41.77;100524.18;1876953;76;28177;-44
2023/01/03 10:36:09;;;;;;;0.82;0.82;;;;;;;23.31;41.74;100530.52;1847315;75;28182;-44
2023/01/03 10:39:07;;;;;;;0.80;0.60;;;;;;;23.29;41.74;100514.26;1873824;76;28125;-43
2023/01/03 10:41:58;;;;;;;0.75;0.75;;;;;;;23.32;41.72;100512.98;1865363;76;28161;-44
2023/01/03 10:44:58;;;;;;;0.70;0.70;;;;;;;23.33;41.63;100514.17;1881633;75;28217;-44
2023/01/03 10:48:01;;;;;;;1.17;1.07;;;;;;;23.32;41.62;100515.21;1874710;75;28114;-45
2023/01/03 10:51:41;;;;;;;0.80;0.80;;;;;;;23.40;41.59;100518.81;1917425;72;27991;-45
2023/01/03 10:54:35;;;;;;;0.80;0.80;;;;;;;23.32;41.62;100527.55;1887794;75;30920;-43
2023/01/03 10:57:39;;;;;;;0.78;0.78;;;;;;;23.30;41.68;100520.07;1900159;75;28019;-44
2023/01/03 11:00:33;;;;;;;0.70;0.70;;;;;;;23.33;41.67;100529.25;1862818;74;28100;-43
2023/01/03 11:03:25;;;;;;;0.80;0.80;;;;;;;23.29;41.64;100527.15;1893809;75;28065;-43
2023/01/03 11:06:16;;;;;;;0.90;0.90;;;;;;;23.32;41.66;100522.06;1889358;75;27982;-43
2023/01/03 11:09:08;;;;;;;0.70;0.70;;;;;;;23.31;41.58;100520.37;1885564;75;28004;-43
2023/01/03 11:12:05;;;;;;;0.80;0.80;;;;;;;23.31;41.66;100519.00;1903091;74;28175;-45
2023/01/03 11:14:56;;;;;;;0.50;0.50;;;;;;;23.33;41.59;100518.80;1902059;75;28026;-45
2023/01/03 11:17:57;;;;;;;0.68;0.68;;;;;;;23.31;41.62;100514.06;1876137;75;28096;-43
2023/01/03 11:21:04;;;;;;;0.80;0.80;;;;;;;23.33;41.53;100513.31;1874325;75;28105;-45
2023/01/03 11:24:27;;;;;;;0.90;0.90;;;;;;;23.33;41.50;100500.98;1886242;73;28040;-45
2023/01/03 11:27:18;;;;;;;0.78;0.78;;;;;;;23.30;41.58;100498.14;1898973;73;27837;-43
2023/01/03 11:30:21;;;;;;;0.62;0.62;;;;;;;23.27;41.59;100494.45;1884074;75;28096;-45
2023/01/03 11:33:48;;;;;;;0.87;0.87;;;;;;;23.30;41.54;100498.66;1892929;73;28072;-45
2023/01/03 11:36:57;;;;;;;0.80;0.80;;;;;;;23.31;41.52;100495.69;1890083;75;28095;-43
2023/01/03 11:40:01;;;;;;;1.45;0.72;;;;;;;23.28;41.57;100498.89;1889834;75;28102;-43
2023/01/03 11:43:12;;;;;;;0.80;0.80;;;;;;;23.28;41.58;100496.14;1893788;73;28115;-45
2023/01/03 11:46:12;;;;;;;0.70;0.70;;;;;;;23.29;41.57;100488.22;1900807;75;28170;-44
2023/01/03 11:49:13;;;;;;;0.70;0.70;;;;;;;23.29;41.50;100490.95;1900337;75;28140;-44
2023/01/03 11:52:28;;;;;;;0.80;0.80;;;;;;;23.30;41.48;100481.69;1876055;74;28058;-45
2023/01/03 11:55:37;;;;;;;0.82;0.82;;;;;;;23.31;41.51;100476.50;1790765;78;28242;-45
2023/01/03 11:58:35;;;;;;;0.80;0.80;;;;;;;23.27;41.54;100473.88;1831542;77;28196;-45
2023/01/03 12:01:35;;;;;;;1.40;0.80;;;;;;;23.27;41.40;100468.41;1818558;76;28102;-46
2023/01/03 12:04:41;;;;;;;0.85;0.82;;;;;;;23.29;41.49;100465.47;1814083;77;28217;-43
2023/01/03 12:07:35;;;;;;;1.00;0.90;;;;;;;23.31;41.48;100459.23;1823126;77;28373;-43
2023/01/03 12:10:26;;;;;;;0.62;0.62;;;;;;;23.32;41.42;100454.89;1834994;77;28273;-43
2023/01/03 12:13:52;;;;;;;0.80;0.80;;;;;;;23.34;41.41;100452.80;1832150;77;28142;-44
2023/01/03 12:16:47;;;;;;;0.65;0.65;;;;;;;23.35;41.44;100443.54;1885038;75;27979;-44
2023/01/03 12:19:38;;;;;;;0.80;0.80;;;;;;;23.25;41.38;100436.26;1887401;75;28127;-43
2023/01/03 12:22:54;;;;;;;0.80;0.80;;;;;;;23.30;41.43;100440.56;1888973;74;27867;-44
2023/01/03 12:25:48;;;;;;;1.10;1.00;;;;;;;23.32;41.39;100446.67;1863270;75;28108;-49
2023/01/03 12:28:43;;;;;;;0.70;0.70;;;;;;;23.28;41.50;100438.58;1889788;73;28146;-45
2023/01/03 12:31:51;;;;;;;0.90;0.90;;;;;;;23.32;41.42;100439.81;1879322;75;28031;-45
2023/01/03 12:34:48;;;;;;;0.70;0.70;;;;;;;23.35;41.35;100436.69;1898967;75;28048;-46
2023/01/03 12:37:39;;;;;;;0.70;0.70;;;;;;;23.32;41.39;100435.70;1901546;73;28085;-44
2023/01/03 12:40:34;;;;;;;0.70;0.70;;;;;;;23.33;41.38;100431.92;1875632;75;28142;-44
2023/01/03 12:43:46;;;;;;;0.70;0.70;;;;;;;23.34;41.28;100430.88;1896609;74;28201;-47
2023/01/03 12:46:37;;;;;;;1.10;1.00;;;;;;;23.33;41.34;100427.80;1888162;75;27987;-44
2023/01/03 12:49:50;;;;;;;0.77;0.77;;;;;;;23.34;41.39;100424.51;1878795;75;28032;-43
2023/01/03 12:52:41;;;;;;;1.15;0.82;;;;;;;23.34;41.28;100422.64;1900715;74;28027;-43
2023/01/03 12:55:38;;;;;;;0.70;0.70;;;;;;;23.33;41.31;100416.84;1901498;75;28073;-43
2023/01/03 12:58:58;;;;;;;0.88;0.88;;;;;;;23.26;41.32;100411.91;1893933;73;28038;-45
2023/01/03 13:01:57;;;;;;;0.70;0.70;;;;;;;23.34;41.28;100414.91;1905492;74;27926;-44
2023/01/03 13:04:47;;;;;;;0.75;0.75;;;;;;;23.32;41.33;100419.78;1893857;74;27943;-43
2023/01/03 13:07:36;;;;;;;1.37;0.95;;;;;;;23.35;41.28;100422.97;1884733;75;28033;-44
2023/01/03 13:10:27;;;;;;;0.70;0.70;;;;;;;23.33;41.30;100425.06;1903466;74;27982;-42
2023/01/03 13:13:19;;;;;;;0.88;0.88;;;;;;;23.33;41.26;100422.32;1906903;74;28012;-44
2023/01/03 13:16:30;;;;;;;1.12;0.90;;;;;;;23.37;41.24;100428.23;1895567;75;27957;-43
2023/01/03 13:19:24;;;;;;;0.80;0.80;;;;;;;23.37;41.20;100426.86;1901376;75;28085;-45
2023/01/03 13:22:25;;;;;;;0.90;0.90;;;;;;;23.32;41.30;100421.15;1904770;74;27980;-43
2023/01/03 13:25:38;;;;;;;0.70;0.70;;;;;;;23.32;41.27;100413.77;1883481;75;27995;-43
2023/01/03 13:28:29;;;;;;;0.78;0.78;;;;;;;23.34;41.22;100422.64;1883290;75;28029;-44
2023/01/03 13:31:21;;;;;;;0.90;0.90;;;;;;;23.31;41.32;100416.73;1905551;74;27999;-43
2023/01/03 13:34:19;;;;;;;0.80;0.80;;;;;;;23.33;41.24;100415.98;1902185;74;28036;-44
2023/01/03 13:37:10;;;;;;;1.27;0.90;;;;;;;23.32;41.24;100419.25;1903411;74;28120;-44
2023/01/03 13:40:18;;;;;;;1.10;0.85;;;;;;;23.34;41.20;100415.80;1904684;74;28031;-42
2023/01/03 13:43:18;;;;;;;0.97;0.97;;;;;;;23.35;41.22;100417.48;1904651;74;27954;-45
2023/01/03 13:46:30;;;;;;;0.95;0.95;;;;;;;23.32;41.26;100416.52;1868608;76;28060;-46
2023/01/03 13:49:22;;;;;;;0.90;0.90;;;;;;;23.34;41.22;100414.42;1868654;76;28072;-44
2023/01/03 13:52:13;;;;;;;0.90;0.90;;;;;;;23.32;41.24;100416.52;1900606;74;29021;-42
2023/01/03 13:55:01;;;;;;;0.90;0.90;;;;;;;23.32;41.24;100421.15;1911145;74;28059;-43
2023/01/03 13:57:53;;;;;;;0.90;0.90;;;;;;;23.35;41.20;100422.12;1896313;75;28053;-44
2023/01/03 14:00:43;;;;;;;0.90;0.90;;;;;;;23.34;41.15;100420.40;1906066;74;27987;-43
2023/01/03 14:03:54;;;;;;;0.80;0.80;;;;;;;23.35;41.21;100418.86;1898527;74;28065;-46
2023/01/03 14:06:48;;;;;;;0.78;0.78;;;;;;;23.34;41.18;100419.91;1911227;74;28597;-44
2023/01/03 14:09:49;;;;;;;0.85;0.85;;;;;;;23.33;41.17;100418.73;1912146;74;27986;-45
2023/01/03 14:13:04;;;;;;;1.00;1.00;;;;;;;23.31;41.19;100423.59;1912833;74;28079;-43
2023/01/03 14:16:12;;;;;;;0.80;0.80;;;;;;;23.33;41.18;100423.69;1912639;74;28150;-45
2023/01/03 14:19:20;;;;;;;0.95;0.95;;;;;;;23.32;41.16;100420.63;1912849;74;28032;-43
2023/01/03 14:22:18;;;;;;;0.90;0.90;;;;;;;23.31;41.19;100424.97;1894285;74;27986;-45
2023/01/03 14:25:06;;;;;;;0.88;0.88;;;;;;;23.30;41.20;100421.38;1889489;74;28002;-43
2023/01/03 14:27:55;;;;;;;0.88;0.88;;;;;;;23.32;41.12;100431.59;1913133;74;27978;-44
2023/01/03 14:30:44;;;;;;;0.80;0.80;;;;;;;23.33;41.14;100425.06;1913300;74;27930;-44
2023/01/03 14:33:38;;;;;;;0.80;0.80;;;;;;;23.33;41.12;100425.59;1884917;74;28378;-45
2023/01/03 14:36:27;;;;;;;0.98;0.98;;;;;;;23.32;41.12;100427.48;1889716;74;28038;-43